createdAt,value
2018-11-21T00:00:22.428Z,13.33
2018-11-21T00:02:50.616Z,13.80
2018-11-21T00:05:18.756Z,13.97
2018-11-21T00:07:46.925Z,13.30
2018-11-21T00:10:15.070Z,14.67
2018-11-21T00:12:47.694Z,13.47
2018-11-21T00:15:15.843Z,13.57
2018-11-21T00:17:44.002Z,14.13
2018-11-21T00:20:12.140Z,13.00
2018-11-21T00:22:40.293Z,12.60
2018-11-21T00:25:08.559Z,13.30
2018-11-21T00:27:36.719Z,13.57
2018-11-21T00:30:06.368Z,14.13
2018-11-21T00:32:34.529Z,15.60
2018-11-21T00:35:02.704Z,15.57
2018-11-21T00:37:30.856Z,15.07
2018-11-21T00:39:59.023Z,14.13
2018-11-21T00:42:27.181Z,14.50
2018-11-21T00:44:55.336Z,14.77
2018-11-21T00:47:23.463Z,16.10
2018-11-21T00:49:51.641Z,14.00
2018-11-21T00:52:19.798Z,14.90
2018-11-21T00:54:47.962Z,13.83
2018-11-21T00:57:16.111Z,15.07
2018-11-21T00:59:44.250Z,16.47
2018-11-21T01:02:12.430Z,16.33
2018-11-21T01:04:40.570Z,15.23
2018-11-21T01:07:08.991Z,15.53
2018-11-21T01:09:37.130Z,15.80
2018-11-21T01:12:05.303Z,16.67
2018-11-21T01:14:33.451Z,15.53
2018-11-21T01:17:01.597Z,15.47
2018-11-21T01:19:29.747Z,13.80
2018-11-21T01:21:57.914Z,17.17
2018-11-21T01:24:26.089Z,15.83
2018-11-21T01:26:54.227Z,14.50
2018-11-21T01:29:22.398Z,15.80
2018-11-21T01:31:50.536Z,16.70
2018-11-21T01:34:18.685Z,14.53
2018-11-21T01:36:46.841Z,14.33
2018-11-21T01:39:15.006Z,15.47
2018-11-21T01:41:43.208Z,15.63
2018-11-21T01:44:11.344Z,14.90
2018-11-21T01:46:39.523Z,13.47
2018-11-21T01:49:07.680Z,14.57
2018-11-21T01:51:35.836Z,14.43
2018-11-21T01:54:04.060Z,13.20
2018-11-21T01:56:32.220Z,14.03
2018-11-21T01:59:00.367Z,14.93
2018-11-21T02:01:28.541Z,13.07
2018-11-21T02:03:56.698Z,12.90
2018-11-21T02:06:24.860Z,12.67
2018-11-21T02:08:53.007Z,16.27
2018-11-21T02:11:21.157Z,16.43
2018-11-21T02:13:49.321Z,15.13
2018-11-21T02:16:17.461Z,14.83
2018-11-21T02:18:46.404Z,15.03
2018-11-21T02:21:14.566Z,14.70
2018-11-21T02:23:42.776Z,15.00
2018-11-21T02:26:10.906Z,12.97
2018-11-21T02:28:39.060Z,15.67
2018-11-21T02:31:07.199Z,15.27
2018-11-21T02:33:35.358Z,17.00
2018-11-21T02:36:03.535Z,15.83
2018-11-21T02:38:31.709Z,14.60
2018-11-21T02:40:59.842Z,13.97
2018-11-21T02:43:28.019Z,12.93
2018-11-21T02:45:56.182Z,12.90
2018-11-21T02:48:24.325Z,13.53
2018-11-21T02:50:52.483Z,13.43
2018-11-21T02:53:20.649Z,14.67
2018-11-21T02:55:48.818Z,14.37
2018-11-21T02:58:17.313Z,14.17
2018-11-21T03:00:45.475Z,14.33
2018-11-21T03:03:13.605Z,14.10
2018-11-21T03:05:41.773Z,13.73
2018-11-21T03:08:09.907Z,13.33
2018-11-21T03:10:38.072Z,12.17
2018-11-21T03:13:06.276Z,13.73
2018-11-21T03:15:34.420Z,12.60
2018-11-21T03:18:02.589Z,12.67
2018-11-21T03:20:30.743Z,12.97
2018-11-21T03:22:58.908Z,13.20
2018-11-21T03:25:27.325Z,13.10
2018-11-21T03:27:55.517Z,13.97
2018-11-21T03:30:23.653Z,16.00
2018-11-21T03:32:51.817Z,13.50
2018-11-21T03:35:19.961Z,14.10
2018-11-21T03:37:48.130Z,12.40
2018-11-21T03:40:16.269Z,13.97
2018-11-21T03:42:44.441Z,13.20
2018-11-21T03:45:13.057Z,14.07
2018-11-21T03:47:41.238Z,13.30
2018-11-21T03:50:10.154Z,13.87
2018-11-21T03:52:38.602Z,15.40
2018-11-21T03:55:07.130Z,14.63
2018-11-21T03:57:35.317Z,14.10
2018-11-21T04:00:03.489Z,12.30
2018-11-21T04:02:31.657Z,12.13
2018-11-21T04:04:59.787Z,12.40
2018-11-21T04:07:27.926Z,12.50
2018-11-21T04:09:56.098Z,12.43
2018-11-21T04:12:24.241Z,13.63
2018-11-21T04:14:52.404Z,12.43
2018-11-21T04:17:21.613Z,13.03
2018-11-21T04:19:48.706Z,13.50
2018-11-21T04:22:16.840Z,14.60
2018-11-21T04:24:45.093Z,14.00
2018-11-21T04:27:13.136Z,15.77
2018-11-21T04:29:41.292Z,16.77
2018-11-21T04:32:10.318Z,11.60
2018-11-21T04:34:38.474Z,14.20
2018-11-21T04:37:06.640Z,15.13
2018-11-21T04:39:34.780Z,12.30
2018-11-21T04:42:02.934Z,14.63
2018-11-21T04:44:31.071Z,15.60
2018-11-21T04:46:59.229Z,13.83
2018-11-21T04:49:27.374Z,13.07
2018-11-21T04:51:55.554Z,12.33
2018-11-21T04:54:23.682Z,13.03
2018-11-21T04:56:51.835Z,13.50
2018-11-21T04:59:19.996Z,14.83
2018-11-21T05:01:48.136Z,13.27
2018-11-21T05:04:16.298Z,13.03
2018-11-21T05:06:44.432Z,13.43
2018-11-21T05:09:12.836Z,11.90
2018-11-21T05:11:41.013Z,12.33
2018-11-21T05:14:09.199Z,13.53
2018-11-21T05:16:37.324Z,12.63
2018-11-21T05:19:05.526Z,12.40
2018-11-21T05:21:33.666Z,13.10
2018-11-21T05:24:01.834Z,12.97
2018-11-21T05:26:29.989Z,13.23
2018-11-21T05:28:58.148Z,13.90
2018-11-21T05:31:26.288Z,13.90
2018-11-21T05:33:54.445Z,11.70
2018-11-21T05:36:22.586Z,13.53
2018-11-21T05:38:50.762Z,14.10
2018-11-21T05:41:18.897Z,12.07
2018-11-21T05:43:47.059Z,12.97
2018-11-21T05:46:15.218Z,12.40
2018-11-21T05:48:43.364Z,13.00
2018-11-21T05:51:11.512Z,12.47
2018-11-21T05:53:39.772Z,13.17
2018-11-21T05:56:07.929Z,12.60
2018-11-21T05:58:36.084Z,12.10
2018-11-21T06:01:04.260Z,12.47
2018-11-21T06:03:32.379Z,13.40
2018-11-21T06:06:00.521Z,13.37
2018-11-21T06:08:28.676Z,12.90
2018-11-21T06:10:56.809Z,11.80
2018-11-21T06:13:24.978Z,12.20
2018-11-21T06:15:54.466Z,12.33
2018-11-21T06:18:22.633Z,12.50
2018-11-21T06:20:51.177Z,13.40
2018-11-21T06:23:19.339Z,12.33
2018-11-21T06:25:47.521Z,11.60
2018-11-21T06:28:15.689Z,12.50
2018-11-21T06:30:44.135Z,13.00
2018-11-21T06:33:12.261Z,13.50
2018-11-21T06:35:40.422Z,12.40
2018-11-21T06:38:08.566Z,13.00
2018-11-21T06:40:36.728Z,13.90
2018-11-21T06:43:04.970Z,13.10
2018-11-21T06:45:33.121Z,13.93
2018-11-21T06:48:01.264Z,12.90
2018-11-21T06:50:29.671Z,13.37
2018-11-21T06:52:58.014Z,13.27
2018-11-21T06:55:26.201Z,14.13
2018-11-21T06:57:54.353Z,13.20
2018-11-21T07:00:22.506Z,11.83
2018-11-21T07:02:50.645Z,12.63
2018-11-21T07:05:18.804Z,14.57
2018-11-21T07:07:47.052Z,13.03
2018-11-21T07:10:16.113Z,12.87
2018-11-21T07:12:44.922Z,13.90
2018-11-21T07:15:13.085Z,13.43
2018-11-21T07:17:41.249Z,13.90
2018-11-21T07:20:10.447Z,12.03
2018-11-21T07:22:38.678Z,12.13
2018-11-21T07:25:08.977Z,13.97
2018-11-21T07:27:37.416Z,14.50
2018-11-21T07:30:07.106Z,12.37
2018-11-21T07:32:35.241Z,13.87
2018-11-21T07:35:03.409Z,13.63
2018-11-21T07:37:31.530Z,14.03
2018-11-21T07:39:59.694Z,15.37
2018-11-21T07:42:27.838Z,15.70
2018-11-21T07:44:56.001Z,14.70
2018-11-21T07:47:26.660Z,13.70
2018-11-21T07:49:52.298Z,17.30
2018-11-21T07:52:20.442Z,16.87
2018-11-21T07:54:48.626Z,17.27
2018-11-21T07:57:56.581Z,15.80
2018-11-21T08:00:48.756Z,14.93
2018-11-21T08:03:17.293Z,16.33
2018-11-21T08:05:50.445Z,16.30
2018-11-21T08:08:36.077Z,15.87
2018-11-21T08:11:21.859Z,15.50
2018-11-21T08:14:27.076Z,15.60
2018-11-21T08:17:20.224Z,15.50
2018-11-21T08:20:07.741Z,16.57
2018-11-21T08:23:01.026Z,15.60
2018-11-21T08:25:46.584Z,15.20
2018-11-21T08:28:22.750Z,16.43
2018-11-21T08:30:51.216Z,16.00
2018-11-21T08:33:19.552Z,16.77
2018-11-21T08:35:47.816Z,17.87
2018-11-21T08:38:16.460Z,17.23
2018-11-21T08:40:44.764Z,15.70
2018-11-21T08:43:12.906Z,17.27
2018-11-21T08:45:43.332Z,17.90
2018-11-21T08:48:11.915Z,16.90
2018-11-21T08:50:40.094Z,17.73
2018-11-21T08:53:08.260Z,16.50
2018-11-21T08:55:36.893Z,16.17
2018-11-21T08:58:05.392Z,16.10
2018-11-21T09:00:33.786Z,17.83
2018-11-21T09:03:02.005Z,16.40
2018-11-21T09:05:30.296Z,17.50
2018-11-21T09:07:58.456Z,17.13
2018-11-21T09:12:54.243Z,17.00
2018-11-21T09:15:22.386Z,17.70
2018-11-21T09:17:50.552Z,16.70
2018-11-21T09:20:18.697Z,17.30
2018-11-21T09:22:46.854Z,17.83
2018-11-21T09:25:15.009Z,17.03
2018-11-21T09:27:43.803Z,17.53
2018-11-21T09:30:13.700Z,17.30
2018-11-21T09:32:41.960Z,19.33
2018-11-21T09:35:11.180Z,18.10
2018-11-21T09:37:39.316Z,16.03
2018-11-21T09:40:08.582Z,18.20
2018-11-21T09:42:36.753Z,16.67
2018-11-21T09:45:05.371Z,18.23
2018-11-21T09:47:33.510Z,15.47
2018-11-21T09:50:01.639Z,15.23
2018-11-21T09:52:29.785Z,16.63
2018-11-21T09:54:57.943Z,16.63
2018-11-21T09:57:26.092Z,14.73
2018-11-21T09:59:54.227Z,16.03
2018-11-21T10:02:40.608Z,14.60
2018-11-21T10:05:08.740Z,14.43
2018-11-21T10:07:39.060Z,14.90
2018-11-21T10:10:07.194Z,14.20
2018-11-21T10:12:35.350Z,15.10
2018-11-21T10:15:03.495Z,16.17
2018-11-21T10:17:31.645Z,15.60
2018-11-21T10:19:59.785Z,15.80
2018-11-21T10:22:27.965Z,15.03
2018-11-21T10:24:56.098Z,13.30
2018-11-21T10:27:24.229Z,15.07
2018-11-21T10:29:52.385Z,13.50
2018-11-21T10:32:20.516Z,14.00
2018-11-21T10:34:48.685Z,14.73
2018-11-21T10:37:16.817Z,14.73
2018-11-21T10:39:44.984Z,13.97
2018-11-21T10:42:13.132Z,14.70
2018-11-21T10:44:41.305Z,14.63
2018-11-21T10:47:09.455Z,14.33
2018-11-21T10:49:37.609Z,15.33
2018-11-21T10:52:05.738Z,14.37
2018-11-21T10:54:33.917Z,15.50
2018-11-21T10:57:02.060Z,15.10
2018-11-21T10:59:30.262Z,14.97
2018-11-21T11:02:22.702Z,12.87
2018-11-21T11:05:10.112Z,15.57
2018-11-21T11:08:03.262Z,15.23
2018-11-21T11:10:53.176Z,14.23
2018-11-21T11:13:38.984Z,13.73
2018-11-21T11:16:21.113Z,13.93
2018-11-21T11:19:08.488Z,13.00
2018-11-21T11:22:04.889Z,15.67
2018-11-21T11:24:58.045Z,13.90
2018-11-21T11:27:45.448Z,14.77
2018-11-21T11:30:47.744Z,14.73
2018-11-21T11:33:32.988Z,16.53
2018-11-21T11:36:18.838Z,13.57
2018-11-21T11:39:09.038Z,14.03
2018-11-21T11:41:54.503Z,13.53
2018-11-21T11:44:40.360Z,14.10
2018-11-21T11:47:26.605Z,14.23
2018-11-21T11:50:12.380Z,14.80
2018-11-21T11:52:57.486Z,14.17
2018-11-21T11:55:47.696Z,15.60
2018-11-21T11:58:35.096Z,14.37
2018-11-21T12:01:21.342Z,12.90
2018-11-21T12:04:09.780Z,13.60
2018-11-21T12:07:15.040Z,14.13
2018-11-21T12:10:06.250Z,13.87
2018-11-21T12:13:05.487Z,15.00
2018-11-21T12:16:02.696Z,14.20
2018-11-21T12:18:56.275Z,13.40
2018-11-21T12:22:01.661Z,15.03
2018-11-21T12:24:39.141Z,15.10
2018-11-21T12:27:35.241Z,14.03
2018-11-21T12:30:22.621Z,14.90
2018-11-21T12:33:10.020Z,16.70
2018-11-21T12:36:09.320Z,17.00
2018-11-21T12:38:57.075Z,16.13
2018-11-21T12:41:42.886Z,15.03
2018-11-21T12:44:28.720Z,14.60
2018-11-21T12:47:22.235Z,15.67
2018-11-21T12:50:12.710Z,13.07
2018-11-21T12:53:03.055Z,14.27
2018-11-21T12:55:50.456Z,13.50
2018-11-21T12:58:43.452Z,14.90
2018-11-21T13:01:24.069Z,15.10
2018-11-21T13:04:05.925Z,14.30
2018-11-21T13:07:11.435Z,13.80
2018-11-21T13:10:11.100Z,13.77
2018-11-21T13:12:54.280Z,14.43
2018-11-21T13:15:53.603Z,14.57
2018-11-21T13:18:39.413Z,13.47
2018-11-21T13:21:20.714Z,14.30
2018-11-21T13:24:06.301Z,14.90
2018-11-21T13:27:02.702Z,15.33
2018-11-21T13:29:50.089Z,15.23
2018-11-21T13:32:36.271Z,14.87
2018-11-21T13:35:22.248Z,14.63
2018-11-21T13:38:00.704Z,14.80
2018-11-21T13:40:46.675Z,13.80
2018-11-21T13:43:39.486Z,16.17
2018-11-21T13:46:32.661Z,16.87
2018-11-21T13:49:18.767Z,15.17
2018-11-21T13:51:56.778Z,14.60
2018-11-21T13:54:42.700Z,14.77
2018-11-21T13:57:10.840Z,15.00
2018-11-21T13:59:38.986Z,15.57
2018-11-21T14:02:07.158Z,15.00
2018-11-21T14:04:35.515Z,15.60
2018-11-21T14:07:03.724Z,14.50
2018-11-21T14:09:31.870Z,15.63
2018-11-21T14:12:00.028Z,15.27
2018-11-21T14:14:28.172Z,14.37
2018-11-21T14:16:56.343Z,15.43
2018-11-21T14:19:24.488Z,15.87
2018-11-21T14:21:55.966Z,14.90
2018-11-21T14:24:20.817Z,15.90
2018-11-21T14:26:49.019Z,15.07
2018-11-21T14:29:17.157Z,15.70
2018-11-21T14:31:45.849Z,16.10
2018-11-21T14:34:14.024Z,15.17
2018-11-21T14:36:42.180Z,16.03
2018-11-21T14:39:11.204Z,15.97
2018-11-21T14:41:40.196Z,17.07
2018-11-21T14:44:08.645Z,17.50
2018-11-21T14:46:36.827Z,17.13
2018-11-21T14:49:05.305Z,16.47
2018-11-21T14:51:33.465Z,17.00
2018-11-21T14:54:01.631Z,16.07
2018-11-21T14:56:29.771Z,15.77
2018-11-21T14:58:57.924Z,17.77
2018-11-21T15:01:26.054Z,17.57
2018-11-21T15:03:54.215Z,16.97
2018-11-21T15:06:22.360Z,17.47
2018-11-21T15:08:50.857Z,16.63
2018-11-21T15:11:18.981Z,16.43
2018-11-21T15:13:47.144Z,15.20
2018-11-21T15:16:15.298Z,15.60
2018-11-21T15:18:43.434Z,16.30
2018-11-21T15:21:16.439Z,14.60
2018-11-21T15:23:39.761Z,15.47
2018-11-21T15:26:07.919Z,15.67
2018-11-21T15:28:36.058Z,17.70
2018-11-21T15:31:04.484Z,16.17
2018-11-21T15:33:32.639Z,16.63
2018-11-21T15:36:00.802Z,16.50
2018-11-21T15:38:28.935Z,16.90
2018-11-21T15:40:57.106Z,16.17
2018-11-21T15:43:25.240Z,15.53
2018-11-21T15:45:53.405Z,14.83
2018-11-21T15:48:21.551Z,17.90
2018-11-21T15:50:49.720Z,16.20
2018-11-21T15:53:17.854Z,17.00
2018-11-21T15:55:46.020Z,16.87
2018-11-21T15:58:14.326Z,16.43
2018-11-21T16:00:42.487Z,14.80
2018-11-21T16:03:11.145Z,16.13
2018-11-21T16:05:39.311Z,15.13
2018-11-21T16:08:10.157Z,15.93
2018-11-21T16:10:39.857Z,15.70
2018-11-21T16:13:08.185Z,16.00
2018-11-21T16:15:43.134Z,17.00
2018-11-21T16:18:11.293Z,17.00
2018-11-21T16:20:39.465Z,16.80
2018-11-21T16:23:07.621Z,16.47
2018-11-21T16:25:36.585Z,18.03
2018-11-21T16:28:05.134Z,17.23
2018-11-21T16:30:33.317Z,16.10
2018-11-21T16:33:01.467Z,17.00
2018-11-21T16:35:29.648Z,16.50
2018-11-21T16:37:57.813Z,18.13
2018-11-21T16:40:27.385Z,18.10
2018-11-21T16:42:57.199Z,17.47
2018-11-21T16:45:27.196Z,16.50
2018-11-21T16:47:55.387Z,18.00
2018-11-21T16:50:23.532Z,17.80
2018-11-21T16:52:51.706Z,17.30
2018-11-21T16:55:21.133Z,17.93
2018-11-21T16:57:49.785Z,19.10
2018-11-21T17:00:22.213Z,18.23
2018-11-21T17:02:50.446Z,18.57
2018-11-21T17:05:19.723Z,18.93
2018-11-21T17:07:47.868Z,18.70
2018-11-21T17:10:17.190Z,17.73
2018-11-21T17:12:45.912Z,18.73
2018-11-21T17:15:15.558Z,18.17
2018-11-21T17:17:43.718Z,15.53
2018-11-21T17:20:14.261Z,18.60
2018-11-21T17:22:42.545Z,23.20
2018-11-21T17:25:12.954Z,19.07
2018-11-21T17:27:41.280Z,19.23
2018-11-21T17:30:10.712Z,20.27
2018-11-21T17:32:38.878Z,17.87
2018-11-21T17:35:07.435Z,19.23
2018-11-21T17:37:35.586Z,18.70
2018-11-21T17:40:04.986Z,16.93
2018-11-21T17:42:33.145Z,17.37
2018-11-21T17:45:01.288Z,18.27
2018-11-21T17:47:29.459Z,18.53
2018-11-21T17:49:57.595Z,20.37
2018-11-21T17:52:25.757Z,18.13
2018-11-21T17:54:53.902Z,17.57
2018-11-21T17:57:27.835Z,16.53
2018-11-21T17:59:50.222Z,16.67
2018-11-21T18:02:18.367Z,16.30
2018-11-21T18:04:46.870Z,17.93
2018-11-21T18:07:15.014Z,21.07
2018-11-21T18:09:43.173Z,17.43
2018-11-21T18:12:11.306Z,17.17
2018-11-21T18:14:39.806Z,18.23
2018-11-21T18:17:07.968Z,17.50
2018-11-21T18:19:36.124Z,17.93
2018-11-21T18:22:04.327Z,18.47
2018-11-21T18:24:32.496Z,17.23
2018-11-21T18:27:00.629Z,17.97
2018-11-21T18:29:29.142Z,17.33
2018-11-21T18:31:57.286Z,17.07
2018-11-21T18:34:25.521Z,17.03
2018-11-21T18:36:53.656Z,18.47
2018-11-21T18:39:21.813Z,17.43
2018-11-21T18:41:49.952Z,17.00
2018-11-21T18:44:18.120Z,15.53
2018-11-21T18:46:46.301Z,19.10
2018-11-21T18:49:14.825Z,16.63
2018-11-21T18:51:42.963Z,16.10
2018-11-21T18:54:11.137Z,16.77
2018-11-21T18:56:45.399Z,14.93
2018-11-21T18:59:23.648Z,14.17
2018-11-21T19:01:51.781Z,15.70
2018-11-21T19:04:19.935Z,14.70
2018-11-21T19:06:48.461Z,14.50
2018-11-21T19:09:16.677Z,15.10
2018-11-21T19:11:44.831Z,17.13
2018-11-21T19:14:13.008Z,16.20
2018-11-21T19:16:41.137Z,17.00
2018-11-21T19:19:09.268Z,17.37
2018-11-21T19:21:37.423Z,15.63
2018-11-21T19:24:05.615Z,16.37
2018-11-21T19:26:33.773Z,16.67
2018-11-21T19:29:01.920Z,17.90
2018-11-21T19:31:30.102Z,17.20
2018-11-21T19:33:58.242Z,17.70
2018-11-21T19:36:26.405Z,19.30
2018-11-21T19:38:54.561Z,19.33
2018-11-21T19:41:22.720Z,19.00
2018-11-21T19:43:50.862Z,19.20
2018-11-21T19:46:19.041Z,17.50
2018-11-21T19:48:47.175Z,16.30
2018-11-21T19:51:15.344Z,18.30
2018-11-21T19:53:43.783Z,17.87
2018-11-21T19:56:11.946Z,15.90
2018-11-21T19:58:40.079Z,18.03
2018-11-21T20:01:08.236Z,16.47
2018-11-21T20:03:36.390Z,18.10
2018-11-21T20:06:04.748Z,17.90
2018-11-21T20:08:32.908Z,18.20
2018-11-21T20:11:01.063Z,16.73
2018-11-21T20:13:30.018Z,16.90
2018-11-21T20:15:58.150Z,18.20
2018-11-21T20:18:26.354Z,18.13
2018-11-21T20:20:54.497Z,15.60
2018-11-21T20:23:22.663Z,16.40
2018-11-21T20:25:50.797Z,16.57
2018-11-21T20:28:18.940Z,16.30
2018-11-21T20:30:47.131Z,17.20
2018-11-21T20:33:15.289Z,17.43
2018-11-21T20:35:43.486Z,16.13
2018-11-21T20:38:11.997Z,16.43
2018-11-21T20:40:40.591Z,16.33
2018-11-21T20:43:08.759Z,17.80
2018-11-21T20:45:36.916Z,16.80
2018-11-21T20:48:05.214Z,15.23
2018-11-21T20:50:33.357Z,15.77
2018-11-21T20:53:01.514Z,15.40
2018-11-21T20:55:30.805Z,15.20
2018-11-21T20:57:58.972Z,14.63
2018-11-21T21:00:28.494Z,14.17
2018-11-21T21:02:56.652Z,14.50
2018-11-21T21:05:25.596Z,14.40
2018-11-21T21:07:53.753Z,14.60
2018-11-21T21:10:26.174Z,15.47
2018-11-21T21:12:54.318Z,14.83
2018-11-21T21:15:22.485Z,15.07
2018-11-21T21:17:51.077Z,15.67
2018-11-21T21:20:26.508Z,16.07
2018-11-21T21:22:56.424Z,15.70
2018-11-21T21:25:26.130Z,15.43
2018-11-21T21:27:54.265Z,16.10
2018-11-21T21:30:32.900Z,16.83
2018-11-21T21:33:01.155Z,15.97
2018-11-21T21:35:30.580Z,16.27
2018-11-21T21:37:59.078Z,14.77
2018-11-21T21:40:27.236Z,17.30
2018-11-21T21:42:55.390Z,14.90
2018-11-21T21:45:24.858Z,15.50
2018-11-21T21:47:53.007Z,16.47
2018-11-21T21:50:22.835Z,15.47
2018-11-21T21:52:50.972Z,16.50
2018-11-21T21:55:20.183Z,17.30
2018-11-21T21:57:48.327Z,14.40
2018-11-21T22:00:18.072Z,15.80
2018-11-21T22:02:46.667Z,19.90
2018-11-21T22:05:14.844Z,16.30
2018-11-21T22:07:43.322Z,16.53
2018-11-21T22:10:12.766Z,15.60
2018-11-21T22:12:41.021Z,16.40
2018-11-21T22:15:32.631Z,15.77
2018-11-21T22:18:02.456Z,17.00
2018-11-21T22:20:30.621Z,15.60
2018-11-21T22:22:58.744Z,16.07
2018-11-21T22:25:26.904Z,15.17
2018-11-21T22:27:55.038Z,14.70
2018-11-21T22:30:23.340Z,15.07
2018-11-21T22:32:52.058Z,14.57
2018-11-21T22:35:24.991Z,14.50
2018-11-21T22:37:51.444Z,15.27
2018-11-21T22:40:19.174Z,14.27
2018-11-21T22:42:47.340Z,14.23
2018-11-21T22:45:16.841Z,15.40
2018-11-21T22:47:45.065Z,13.53
2018-11-21T22:50:14.881Z,13.70
2018-11-21T22:52:43.112Z,13.67
2018-11-21T22:55:11.829Z,14.87
2018-11-21T22:57:40.230Z,14.80
2018-11-21T23:00:19.661Z,13.07
2018-11-21T23:02:47.884Z,14.30
2018-11-21T23:05:16.052Z,14.63
2018-11-21T23:07:45.368Z,13.67
2018-11-21T23:10:14.717Z,14.70
2018-11-21T23:12:42.906Z,14.50
2018-11-21T23:15:11.732Z,14.07
2018-11-21T23:17:39.908Z,14.00
2018-11-21T23:20:09.315Z,14.23
2018-11-21T23:22:37.478Z,13.80
2018-11-21T23:25:06.392Z,14.10
2018-11-21T23:27:34.566Z,14.50
2018-11-21T23:30:02.699Z,13.50
2018-11-21T23:32:31.042Z,13.03
2018-11-21T23:34:59.311Z,14.57
2018-11-21T23:37:28.234Z,14.47
2018-11-21T23:39:56.367Z,13.47
2018-11-21T23:42:24.527Z,13.87
2018-11-21T23:44:52.669Z,13.43
2018-11-21T23:47:20.832Z,13.53
2018-11-21T23:49:48.974Z,14.47
2018-11-21T23:52:17.130Z,13.73
2018-11-21T23:54:45.280Z,14.30
2018-11-21T23:57:16.301Z,13.40
2018-11-21T23:59:41.595Z,13.20
